sensor_id;sensor_type;location;lat;lon;timestamp;pressure;altitude;pressure_sealevel;temperature;humidity
61710;BME280;73500;51.494;5.386;2024-01-10T00:00:25;102959.53;;;17.80;30.47
61710;BME280;73500;51.494;5.386;2024-01-10T00:02:51;102964.50;;;17.86;30.04
61710;BME280;73500;51.494;5.386;2024-01-10T00:05:16;102966.44;;;17.83;30.20
61710;BME280;73500;51.494;5.386;2024-01-10T00:07:41;102961.16;;;17.83;30.16
61710;BME280;73500;51.494;5.386;2024-01-10T00:10:07;102961.56;;;17.73;30.19
61710;BME280;73500;51.494;5.386;2024-01-10T00:12:32;102948.53;;;17.70;30.14
61710;BME280;73500;51.494;5.386;2024-01-10T00:15:05;102957.03;;;17.77;29.81
61710;BME280;73500;51.494;5.386;2024-01-10T00:17:31;102935.47;;;17.67;29.71
61710;BME280;73500;51.494;5.386;2024-01-10T00:19:56;102930.31;;;17.66;29.85
61710;BME280;73500;51.494;5.386;2024-01-10T00:22:21;102939.97;;;17.65;29.66
61710;BME280;73500;51.494;5.386;2024-01-10T00:24:47;102935.66;;;17.64;29.91
61710;BME280;73500;51.494;5.386;2024-01-10T00:27:12;102938.22;;;17.66;30.11
61710;BME280;73500;51.494;5.386;2024-01-10T00:29:38;102947.69;;;17.70;29.84
61710;BME280;73500;51.494;5.386;2024-01-10T00:32:03;102933.94;;;17.63;29.85
61710;BME280;73500;51.494;5.386;2024-01-10T00:34:29;102910.81;;;17.49;29.81
61710;BME280;73500;51.494;5.386;2024-01-10T00:36:55;102936.56;;;17.63;30.13
61710;BME280;73500;51.494;5.386;2024-01-10T00:39:20;102935.78;;;17.61;29.72
61710;BME280;73500;51.494;5.386;2024-01-10T00:41:45;102927.50;;;17.50;29.97
61710;BME280;73500;51.494;5.386;2024-01-10T00:44:10;102942.81;;;17.61;29.95
61710;BME280;73500;51.494;5.386;2024-01-10T00:46:36;102933.56;;;17.52;29.88
61710;BME280;73500;51.494;5.386;2024-01-10T00:49:02;102931.97;;;17.48;30.11
61710;BME280;73500;51.494;5.386;2024-01-10T00:51:27;102933.56;;;17.52;29.70
61710;BME280;73500;51.494;5.386;2024-01-10T00:53:52;102938.72;;;17.55;30.19
61710;BME280;73500;51.494;5.386;2024-01-10T00:56:17;102927.50;;;17.50;29.90
61710;BME280;73500;51.494;5.386;2024-01-10T00:58:43;102925.16;;;17.44;29.76
61710;BME280;73500;51.494;5.386;2024-01-10T01:01:08;102922.47;;;17.45;30.09
61710;BME280;73500;51.494;5.386;2024-01-10T01:03:33;102940.59;;;17.51;29.87
61710;BME280;73500;51.494;5.386;2024-01-10T01:05:59;102938.97;;;17.49;29.97
61710;BME280;73500;51.494;5.386;2024-01-10T01:08:24;102934.56;;;17.49;29.97
61710;BME280;73500;51.494;5.386;2024-01-10T01:10:49;102919.16;;;17.40;30.23
61710;BME280;73500;51.494;5.386;2024-01-10T01:13:15;102918.31;;;17.39;29.88
61710;BME280;73500;51.494;5.386;2024-01-10T01:15:40;102932.06;;;17.46;29.91
61710;BME280;73500;51.494;5.386;2024-01-10T01:18:06;102927.72;;;17.45;29.90
61710;BME280;73500;51.494;5.386;2024-01-10T01:20:31;102901.91;;;17.33;30.33
61710;BME280;73500;51.494;5.386;2024-01-10T01:22:56;102911.50;;;17.34;29.98
61710;BME280;73500;51.494;5.386;2024-01-10T01:25:22;102921.72;;;17.41;30.21
61710;BME280;73500;51.494;5.386;2024-01-10T01:27:47;102909.75;;;17.34;30.21
61710;BME280;73500;51.494;5.386;2024-01-10T01:30:12;102919.28;;;17.37;30.04
61710;BME280;73500;51.494;5.386;2024-01-10T01:32:38;102932.13;;;17.45;30.06
61710;BME280;73500;51.494;5.386;2024-01-10T01:35:04;102907.13;;;17.34;30.25
61710;BME280;73500;51.494;5.386;2024-01-10T01:37:29;102917.38;;;17.40;30.22
61710;BME280;73500;51.494;5.386;2024-01-10T01:39:54;102923.44;;;17.43;29.98
61710;BME280;73500;51.494;5.386;2024-01-10T01:42:20;102915.59;;;17.41;30.36
61710;BME280;73500;51.494;5.386;2024-01-10T01:44:45;102913.94;;;17.38;30.60
61710;BME280;73500;51.494;5.386;2024-01-10T01:47:10;102920.81;;;17.43;30.48
61710;BME280;73500;51.494;5.386;2024-01-10T01:49:36;102920.88;;;17.41;30.19
61710;BME280;73500;51.494;5.386;2024-01-10T01:52:01;102911.31;;;17.38;30.24
61710;BME280;73500;51.494;5.386;2024-01-10T01:54:27;102910.47;;;17.38;30.33
61710;BME280;73500;51.494;5.386;2024-01-10T01:56:53;102918.31;;;17.39;30.31
61710;BME280;73500;51.494;5.386;2024-01-10T01:59:19;102923.50;;;17.41;30.37
61710;BME280;73500;51.494;5.386;2024-01-10T02:01:45;102900.97;;;17.34;30.19
61710;BME280;73500;51.494;5.386;2024-01-10T02:04:11;102916.50;;;17.40;30.21
61710;BME280;73500;51.494;5.386;2024-01-10T02:06:36;102910.47;;;17.38;30.22
61710;BME280;73500;51.494;5.386;2024-01-10T02:09:02;102906.97;;;17.37;30.12
61710;BME280;73500;51.494;5.386;2024-01-10T02:11:28;102907.84;;;17.38;30.09
61710;BME280;73500;51.494;5.386;2024-01-10T02:13:54;102897.56;;;17.32;30.53
61710;BME280;73500;51.494;5.386;2024-01-10T02:16:20;102903.47;;;17.37;30.54
61710;BME280;73500;51.494;5.386;2024-01-10T02:18:45;102892.34;;;17.30;30.55
61710;BME280;73500;51.494;5.386;2024-01-10T02:21:11;102906.19;;;17.35;30.06
61710;BME280;73500;51.494;5.386;2024-01-10T02:23:36;102904.50;;;17.34;30.40
61710;BME280;73500;51.494;5.386;2024-01-10T02:26:01;102900.97;;;17.34;30.31
61710;BME280;73500;51.494;5.386;2024-01-10T02:28:27;102889.88;;;17.27;30.49
61710;BME280;73500;51.494;5.386;2024-01-10T02:30:54;102901.78;;;17.36;30.59
61710;BME280;73500;51.494;5.386;2024-01-10T02:33:19;102896.72;;;17.31;30.22
61710;BME280;73500;51.494;5.386;2024-01-10T02:35:45;102901.91;;;17.33;30.28
61710;BME280;73500;51.494;5.386;2024-01-10T02:38:10;102901.84;;;17.34;30.18
61710;BME280;73500;51.494;5.386;2024-01-10T02:40:35;102905.41;;;17.33;30.15
61710;BME280;73500;51.494;5.386;2024-01-10T02:43:01;102894.22;;;17.28;30.34
61710;BME280;73500;51.494;5.386;2024-01-10T02:45:26;102876.81;;;17.24;30.62
61710;BME280;73500;51.494;5.386;2024-01-10T02:47:51;102890.66;;;17.29;30.71
61710;BME280;73500;51.494;5.386;2024-01-10T02:50:17;102884.72;;;17.24;30.29
61710;BME280;73500;51.494;5.386;2024-01-10T02:52:42;102881.13;;;17.27;30.70
61710;BME280;73500;51.494;5.386;2024-01-10T02:55:07;102881.03;;;17.28;30.42
61710;BME280;73500;51.494;5.386;2024-01-10T02:57:33;102891.59;;;17.28;30.33
61710;BME280;73500;51.494;5.386;2024-01-10T02:59:58;102882.91;;;17.26;30.43
61710;BME280;73500;51.494;5.386;2024-01-10T03:02:23;102873.41;;;17.22;30.24
61710;BME280;73500;51.494;5.386;2024-01-10T03:04:49;102882.03;;;17.26;30.58
61710;BME280;73500;51.494;5.386;2024-01-10T03:07:14;102886.31;;;17.28;30.22
61710;BME280;73500;51.494;5.386;2024-01-10T03:09:39;102867.50;;;17.17;30.35
61710;BME280;73500;51.494;5.386;2024-01-10T03:12:05;102877.63;;;17.26;30.18
61710;BME280;73500;51.494;5.386;2024-01-10T03:14:30;102875.19;;;17.21;30.71
61710;BME280;73500;51.494;5.386;2024-01-10T03:16:55;102854.34;;;17.17;30.41
61710;BME280;73500;51.494;5.386;2024-01-10T03:19:21;102860.38;;;17.19;30.39
61710;BME280;73500;51.494;5.386;2024-01-10T03:21:46;102853.44;;;17.16;30.59
61710;BME280;73500;51.494;5.386;2024-01-10T03:24:11;102868.00;;;17.25;30.79
61710;BME280;73500;51.494;5.386;2024-01-10T03:26:37;102865.50;;;17.22;30.50
61710;BME280;73500;51.494;5.386;2024-01-10T03:29:02;102857.75;;;17.19;30.47
61710;BME280;73500;51.494;5.386;2024-01-10T03:31:29;102868.91;;;17.24;30.69
61710;BME280;73500;51.494;5.386;2024-01-10T03:33:55;102857.81;;;17.17;30.49
61710;BME280;73500;51.494;5.386;2024-01-10T03:36:21;102850.81;;;17.16;30.46
61710;BME280;73500;51.494;5.386;2024-01-10T03:38:46;102858.50;;;17.21;30.31
61710;BME280;73500;51.494;5.386;2024-01-10T03:41:16;102857.59;;;17.22;30.42
61710;BME280;73500;51.494;5.386;2024-01-10T03:43:42;102854.19;;;17.20;30.50
61710;BME280;73500;51.494;5.386;2024-01-10T03:46:08;102842.06;;;17.16;30.69
61710;BME280;73500;51.494;5.386;2024-01-10T03:48:34;102838.78;;;17.11;30.86
61710;BME280;73500;51.494;5.386;2024-01-10T03:50:59;102834.38;;;17.11;30.60
61710;BME280;73500;51.494;5.386;2024-01-10T03:53:24;102831.72;;;17.11;30.79
61710;BME280;73500;51.494;5.386;2024-01-10T03:55:50;102829.09;;;17.11;30.77
61710;BME280;73500;51.494;5.386;2024-01-10T03:58:15;102828.25;;;17.11;30.69
61710;BME280;73500;51.494;5.386;2024-01-10T04:00:40;102835.81;;;17.18;30.30
61710;BME280;73500;51.494;5.386;2024-01-10T04:03:05;102824.84;;;17.09;30.65
61710;BME280;73500;51.494;5.386;2024-01-10T04:05:31;102822.22;;;17.09;30.77
61710;BME280;73500;51.494;5.386;2024-01-10T04:07:56;102844.63;;;17.17;30.56
61710;BME280;73500;51.494;5.386;2024-01-10T04:10:22;102839.38;;;17.17;30.45
61710;BME280;73500;51.494;5.386;2024-01-10T04:12:48;102823.97;;;17.08;30.59
61710;BME280;73500;51.494;5.386;2024-01-10T04:15:14;102831.53;;;17.16;30.61
61710;BME280;73500;51.494;5.386;2024-01-10T04:17:39;102810.81;;;17.08;30.51
61710;BME280;73500;51.494;5.386;2024-01-10T04:20:05;102827.28;;;17.13;30.68
61710;BME280;73500;51.494;5.386;2024-01-10T04:22:31;102828.97;;;17.14;30.32
61710;BME280;73500;51.494;5.386;2024-01-10T04:25:00;102837.81;;;17.13;30.62
61710;BME280;73500;51.494;5.386;2024-01-10T04:27:27;102818.63;;;17.10;30.72
61710;BME280;73500;51.494;5.386;2024-01-10T04:29:53;102813.78;;;17.00;30.78
61710;BME280;73500;51.494;5.386;2024-01-10T04:32:18;102812.78;;;17.03;30.32
61710;BME280;73500;51.494;5.386;2024-01-10T04:34:43;102812.88;;;17.01;30.82
61710;BME280;73500;51.494;5.386;2024-01-10T04:37:09;102805.72;;;17.03;30.58
61710;BME280;73500;51.494;5.386;2024-01-10T04:39:35;102806.03;;;16.97;30.59
61710;BME280;73500;51.494;5.386;2024-01-10T04:42:01;102811.13;;;17.00;30.55
61710;BME280;73500;51.494;5.386;2024-01-10T04:44:27;102810.31;;;17.00;30.55
61710;BME280;73500;51.494;5.386;2024-01-10T04:46:52;102824.09;;;17.05;30.46
61710;BME280;73500;51.494;5.386;2024-01-10T04:49:17;102830.97;;;17.09;30.46
61710;BME280;73500;51.494;5.386;2024-01-10T04:51:42;102830.13;;;17.09;30.68
61710;BME280;73500;51.494;5.386;2024-01-10T04:54:08;102823.13;;;17.08;30.63
61710;BME280;73500;51.494;5.386;2024-01-10T04:56:34;102802.41;;;17.00;30.54
61710;BME280;73500;51.494;5.386;2024-01-10T04:59:01;102812.66;;;17.06;30.26
61710;BME280;73500;51.494;5.386;2024-01-10T05:01:26;102809.59;;;16.96;30.54
61710;BME280;73500;51.494;5.386;2024-01-10T05:03:52;102813.06;;;16.97;30.76
61710;BME280;73500;51.494;5.386;2024-01-10T05:06:17;102807.38;;;17.06;30.54
61710;BME280;73500;51.494;5.386;2024-01-10T05:08:42;102797.25;;;16.97;30.91
61710;BME280;73500;51.494;5.386;2024-01-10T05:11:08;102815.50;;;17.01;30.76
61710;BME280;73500;51.494;5.386;2024-01-10T05:13:33;102814.50;;;17.04;30.64
61710;BME280;73500;51.494;5.386;2024-01-10T05:15:58;102799.06;;;16.96;30.76
61710;BME280;73500;51.494;5.386;2024-01-10T05:18:24;102797.41;;;16.94;31.00
61710;BME280;73500;51.494;5.386;2024-01-10T05:20:49;102800.91;;;16.94;30.93
61710;BME280;73500;51.494;5.386;2024-01-10T05:23:15;102813.78;;;17.00;30.99
61710;BME280;73500;51.494;5.386;2024-01-10T05:25:40;102812.09;;;16.99;30.89
61710;BME280;73500;51.494;5.386;2024-01-10T05:28:05;102799.97;;;16.95;30.69
61710;BME280;73500;51.494;5.386;2024-01-10T05:30:31;102813.63;;;17.03;31.22
61710;BME280;73500;51.494;5.386;2024-01-10T05:33:00;102811.22;;;16.99;31.50
61710;BME280;73500;51.494;5.386;2024-01-10T05:35:25;102805.81;;;17.02;31.99
61710;BME280;73500;51.494;5.386;2024-01-10T05:37:54;102814.09;;;17.13;32.46
61710;BME280;73500;51.494;5.386;2024-01-10T05:40:20;102820.78;;;17.20;32.56
61710;BME280;73500;51.494;5.386;2024-01-10T05:42:45;102804.34;;;17.15;32.70
61710;BME280;73500;51.494;5.386;2024-01-10T05:45:10;102816.22;;;17.24;33.13
61710;BME280;73500;51.494;5.386;2024-01-10T05:47:36;102816.00;;;17.29;33.15
61710;BME280;73500;51.494;5.386;2024-01-10T05:50:02;102817.66;;;17.31;32.89
61710;BME280;73500;51.494;5.386;2024-01-10T05:52:31;102823.50;;;17.38;33.15
61710;BME280;73500;51.494;5.386;2024-01-10T05:54:56;102815.59;;;17.38;33.13
61710;BME280;73500;51.494;5.386;2024-01-10T05:57:22;102805.25;;;17.33;33.00
61710;BME280;73500;51.494;5.386;2024-01-10T05:59:47;102809.31;;;17.40;32.92
61710;BME280;73500;51.494;5.386;2024-01-10T06:02:12;102803.19;;;17.40;32.85
61710;BME280;73500;51.494;5.386;2024-01-10T06:04:41;102813.34;;;17.48;33.04
61710;BME280;73500;51.494;5.386;2024-01-10T06:07:06;102802.19;;;17.43;33.20
61710;BME280;73500;51.494;5.386;2024-01-10T06:09:31;102814.13;;;17.50;33.29
61710;BME280;73500;51.494;5.386;2024-01-10T06:11:56;102804.47;;;17.50;32.98
61710;BME280;73500;51.494;5.386;2024-01-10T06:14:22;102817.28;;;17.58;32.97
61710;BME280;73500;51.494;5.386;2024-01-10T06:16:47;102815.56;;;17.57;32.86
61710;BME280;73500;51.494;5.386;2024-01-10T06:19:12;102791.34;;;17.49;32.87
61710;BME280;73500;51.494;5.386;2024-01-10T06:21:38;102803.22;;;17.57;32.77
61710;BME280;73500;51.494;5.386;2024-01-10T06:24:03;102810.06;;;17.62;33.09
61710;BME280;73500;51.494;5.386;2024-01-10T06:26:29;102801.41;;;17.59;33.19
61710;BME280;73500;51.494;5.386;2024-01-10T06:28:54;102808.34;;;17.61;33.00
61710;BME280;73500;51.494;5.386;2024-01-10T06:31:20;102789.34;;;17.54;32.97
61710;BME280;73500;51.494;5.386;2024-01-10T06:33:45;102792.91;;;17.53;33.06
61710;BME280;73500;51.494;5.386;2024-01-10T06:36:10;102813.63;;;17.61;32.88
61710;BME280;73500;51.494;5.386;2024-01-10T06:38:38;102816.25;;;17.61;32.95
61710;BME280;73500;51.494;5.386;2024-01-10T06:41:08;102810.16;;;17.60;32.85
61710;BME280;73500;51.494;5.386;2024-01-10T06:43:33;102818.06;;;17.60;32.89
61710;BME280;73500;51.494;5.386;2024-01-10T06:45:59;102808.66;;;17.54;32.62
61710;BME280;73500;51.494;5.386;2024-01-10T06:48:24;102806.09;;;17.53;32.73
61710;BME280;73500;51.494;5.386;2024-01-10T06:50:50;102810.38;;;17.55;32.88
61710;BME280;73500;51.494;5.386;2024-01-10T06:53:15;102818.75;;;17.64;32.92
61710;BME280;73500;51.494;5.386;2024-01-10T06:55:40;102812.63;;;17.63;32.67
61710;BME280;73500;51.494;5.386;2024-01-10T06:58:06;102805.78;;;17.59;32.79
61710;BME280;73500;51.494;5.386;2024-01-10T07:00:31;102797.19;;;17.55;33.21
61710;BME280;73500;51.494;5.386;2024-01-10T07:02:56;102810.00;;;17.63;33.21
61710;BME280;73500;51.494;5.386;2024-01-10T07:05:22;102811.72;;;17.64;33.30
61710;BME280;73500;51.494;5.386;2024-01-10T07:07:47;102822.09;;;17.67;33.36
61710;BME280;73500;51.494;5.386;2024-01-10T07:10:14;102813.56;;;17.62;33.02
61710;BME280;73500;51.494;5.386;2024-01-10T07:12:40;102819.31;;;17.70;33.19
61710;BME280;73500;51.494;5.386;2024-01-10T07:15:06;102819.69;;;17.63;32.49
61710;BME280;73500;51.494;5.386;2024-01-10T07:17:32;102821.25;;;17.67;32.80
61710;BME280;73500;51.494;5.386;2024-01-10T07:19:58;102810.22;;;17.58;32.96
61710;BME280;73500;51.494;5.386;2024-01-10T07:22:23;102797.94;;;17.57;32.72
61710;BME280;73500;51.494;5.386;2024-01-10T07:24:49;102788.44;;;17.55;32.97
61710;BME280;73500;51.494;5.386;2024-01-10T07:27:14;102789.13;;;17.58;33.40
61710;BME280;73500;51.494;5.386;2024-01-10T07:29:40;102792.53;;;17.61;33.62
61710;BME280;73500;51.494;5.386;2024-01-10T07:32:06;102810.56;;;17.70;33.81
61710;BME280;73500;51.494;5.386;2024-01-10T07:34:37;102814.91;;;17.71;33.40
61710;BME280;73500;51.494;5.386;2024-01-10T07:37:02;102794.31;;;17.60;33.87
61710;BME280;73500;51.494;5.386;2024-01-10T07:39:28;102801.00;;;17.67;33.45
61710;BME280;73500;51.494;5.386;2024-01-10T07:41:53;102807.84;;;17.71;33.08
61710;BME280;73500;51.494;5.386;2024-01-10T07:44:19;102801.72;;;17.71;33.32
61710;BME280;73500;51.494;5.386;2024-01-10T07:46:44;102768.47;;;17.49;33.49
61710;BME280;73500;51.494;5.386;2024-01-10T07:49:10;102795.44;;;17.73;33.85
61710;BME280;73500;51.494;5.386;2024-01-10T07:51:35;102772.09;;;17.66;33.67
61710;BME280;73500;51.494;5.386;2024-01-10T07:54:00;102795.50;;;17.72;33.79
61710;BME280;73500;51.494;5.386;2024-01-10T07:56:26;102814.53;;;17.79;33.35
61710;BME280;73500;51.494;5.386;2024-01-10T07:58:51;102809.41;;;17.75;33.22
61710;BME280;73500;51.494;5.386;2024-01-10T08:01:17;102797.44;;;17.68;33.76
61710;BME280;73500;51.494;5.386;2024-01-10T08:03:42;102804.34;;;17.71;33.34
61710;BME280;73500;51.494;5.386;2024-01-10T08:06:08;102799.31;;;17.66;33.60
61710;BME280;73500;51.494;5.386;2024-01-10T08:08:33;102803.56;;;17.69;33.58
61710;BME280;73500;51.494;5.386;2024-01-10T08:10:58;102817.09;;;17.80;33.44
61710;BME280;73500;51.494;5.386;2024-01-10T08:13:24;102800.00;;;17.70;33.92
61710;BME280;73500;51.494;5.386;2024-01-10T08:15:49;102831.06;;;17.82;34.19
61710;BME280;73500;51.494;5.386;2024-01-10T08:18:15;102818.09;;;17.77;34.51
61710;BME280;73500;51.494;5.386;2024-01-10T08:20:40;102822.94;;;17.87;34.68
61710;BME280;73500;51.494;5.386;2024-01-10T08:23:05;102821.72;;;17.94;34.51
61710;BME280;73500;51.494;5.386;2024-01-10T08:25:31;102813.03;;;17.92;35.37
61710;BME280;73500;51.494;5.386;2024-01-10T08:27:57;102815.28;;;18.00;35.03
61710;BME280;73500;51.494;5.386;2024-01-10T08:30:23;102817.72;;;18.04;35.79
61710;BME280;73500;51.494;5.386;2024-01-10T08:32:49;102816.91;;;18.02;35.60
61710;BME280;73500;51.494;5.386;2024-01-10T08:35:15;102835.00;;;18.10;35.49
61710;BME280;73500;51.494;5.386;2024-01-10T08:37:40;102828.09;;;18.07;35.90
61710;BME280;73500;51.494;5.386;2024-01-10T08:40:09;102826.53;;;18.03;36.83
61710;BME280;73500;51.494;5.386;2024-01-10T08:42:37;102816.28;;;17.97;36.79
61710;BME280;73500;51.494;5.386;2024-01-10T08:45:04;102831.81;;;18.03;36.32
61710;BME280;73500;51.494;5.386;2024-01-10T08:47:29;102821.56;;;17.97;36.07
61710;BME280;73500;51.494;5.386;2024-01-10T08:49:57;102825.16;;;17.96;36.03
61710;BME280;73500;51.494;5.386;2024-01-10T08:52:23;102828.34;;;18.03;35.69
61710;BME280;73500;51.494;5.386;2024-01-10T08:54:48;102831.91;;;18.02;35.30
61710;BME280;73500;51.494;5.386;2024-01-10T08:57:14;102818.16;;;17.95;35.28
61710;BME280;73500;51.494;5.386;2024-01-10T08:59:41;102835.44;;;18.01;35.60
61710;BME280;73500;51.494;5.386;2024-01-10T09:02:07;102840.66;;;18.02;35.40
61710;BME280;73500;51.494;5.386;2024-01-10T09:04:32;102843.22;;;18.04;35.18
61710;BME280;73500;51.494;5.386;2024-01-10T09:06:58;102824.06;;;18.00;35.17
61710;BME280;73500;51.494;5.386;2024-01-10T09:09:23;102820.72;;;17.97;35.14
61710;BME280;73500;51.494;5.386;2024-01-10T09:11:49;102836.03;;;18.07;35.27
61710;BME280;73500;51.494;5.386;2024-01-10T09:14:14;102822.19;;;18.02;35.01
61710;BME280;73500;51.494;5.386;2024-01-10T09:16:40;102836.03;;;18.07;34.87
61710;BME280;73500;51.494;5.386;2024-01-10T09:19:05;102836.09;;;18.06;35.27
61710;BME280;73500;51.494;5.386;2024-01-10T09:21:30;102820.72;;;17.97;35.12
61710;BME280;73500;51.494;5.386;2024-01-10T09:23:56;102829.19;;;18.03;35.33
61710;BME280;73500;51.494;5.386;2024-01-10T09:26:22;102850.91;;;18.08;35.01
61710;BME280;73500;51.494;5.386;2024-01-10T09:28:47;102830.44;;;17.96;35.20
61710;BME280;73500;51.494;5.386;2024-01-10T09:31:13;102834.84;;;17.95;35.18
61710;BME280;73500;51.494;5.386;2024-01-10T09:33:38;102851.06;;;18.05;34.94
61710;BME280;73500;51.494;5.386;2024-01-10T09:36:04;102835.72;;;17.96;34.96
61710;BME280;73500;51.494;5.386;2024-01-10T09:38:29;102846.72;;;18.04;34.91
61710;BME280;73500;51.494;5.386;2024-01-10T09:41:00;102838.34;;;17.96;35.21
61710;BME280;73500;51.494;5.386;2024-01-10T09:43:30;102851.22;;;18.02;35.24
61710;BME280;73500;51.494;5.386;2024-01-10T09:45:57;102848.56;;;18.02;35.12
61710;BME280;73500;51.494;5.386;2024-01-10T09:48:24;102850.28;;;18.03;35.01
61710;BME280;73500;51.494;5.386;2024-01-10T09:50:50;102848.81;;;17.98;35.19
61710;BME280;73500;51.494;5.386;2024-01-10T09:53:22;102855.50;;;18.05;35.29
61710;BME280;73500;51.494;5.386;2024-01-10T09:55:49;102856.47;;;18.02;35.01
61710;BME280;73500;51.494;5.386;2024-01-10T09:58:14;102846.34;;;17.94;34.96
61710;BME280;73500;51.494;5.386;2024-01-10T10:00:40;102847.09;;;17.97;35.20
61710;BME280;73500;51.494;5.386;2024-01-10T10:03:10;102865.19;;;18.04;34.94
61710;BME280;73500;51.494;5.386;2024-01-10T10:05:37;102861.63;;;18.05;35.00
61710;BME280;73500;51.494;5.386;2024-01-10T10:08:05;102843.69;;;17.94;35.18
61710;BME280;73500;51.494;5.386;2024-01-10T10:10:31;102858.91;;;18.07;34.81
61710;BME280;73500;51.494;5.386;2024-01-10T10:12:57;102859.13;;;18.02;34.97
61710;BME280;73500;51.494;5.386;2024-01-10T10:15:24;102849.75;;;17.97;35.20
61710;BME280;73500;51.494;5.386;2024-01-10T10:17:51;102842.59;;;17.99;35.21
61710;BME280;73500;51.494;5.386;2024-01-10T10:20:22;102863.41;;;18.05;35.33
61710;BME280;73500;51.494;5.386;2024-01-10T10:25:31;102853.91;;;18.01;34.97
61710;BME280;73500;51.494;5.386;2024-01-10T10:27:57;102853.84;;;18.02;35.63
61710;BME280;73500;51.494;5.386;2024-01-10T10:30:24;102852.94;;;18.03;35.46
61710;BME280;73500;51.494;5.386;2024-01-10T10:32:50;102847.81;;;18.00;35.09
61710;BME280;73500;51.494;5.386;2024-01-10T10:35:18;102846.88;;;18.01;34.49
61710;BME280;73500;51.494;5.386;2024-01-10T10:37:43;102827.94;;;17.93;34.66
61710;BME280;73500;51.494;5.386;2024-01-10T10:40:09;102824.34;;;17.94;34.72
61710;BME280;73500;51.494;5.386;2024-01-10T10:42:39;102824.06;;;18.00;34.61
61710;BME280;73500;51.494;5.386;2024-01-10T10:45:06;102818.09;;;17.97;34.67
61710;BME280;73500;51.494;5.386;2024-01-10T10:47:36;102816.28;;;17.97;34.77
61710;BME280;73500;51.494;5.386;2024-01-10T10:50:04;102806.19;;;17.88;34.75
61710;BME280;73500;51.494;5.386;2024-01-10T10:52:31;102827.78;;;17.96;34.44
61710;BME280;73500;51.494;5.386;2024-01-10T10:54:58;102837.41;;;17.97;34.66
61710;BME280;73500;51.494;5.386;2024-01-10T10:57:25;102833.00;;;17.98;34.60
61710;BME280;73500;51.494;5.386;2024-01-10T10:59:53;102824.50;;;17.91;34.34
61710;BME280;73500;51.494;5.386;2024-01-10T11:02:21;102813.94;;;17.91;34.51
61710;BME280;73500;51.494;5.386;2024-01-10T11:04:50;102824.50;;;17.91;34.58
61710;BME280;73500;51.494;5.386;2024-01-10T11:07:16;102818.50;;;17.87;34.64
61710;BME280;73500;51.494;5.386;2024-01-10T11:09:44;102819.41;;;17.86;34.92
61710;BME280;73500;51.494;5.386;2024-01-10T11:21:06;102819.88;;;17.96;34.72
61710;BME280;73500;51.494;5.386;2024-01-10T11:23:43;102804.53;;;17.85;34.86
61710;BME280;73500;51.494;5.386;2024-01-10T11:26:10;102813.81;;;17.94;34.67
61710;BME280;73500;51.494;5.386;2024-01-10T11:28:39;102798.03;;;17.92;34.65
61710;BME280;73500;51.494;5.386;2024-01-10T11:31:06;102812.81;;;17.97;34.47
61710;BME280;73500;51.494;5.386;2024-01-10T11:33:35;102798.19;;;17.89;34.89
61710;BME280;73500;51.494;5.386;2024-01-10T11:36:14;102801.34;;;17.98;34.94
61710;BME280;73500;51.494;5.386;2024-01-10T11:41:32;102785.88;;;17.90;35.76
61710;BME280;73500;51.494;5.386;2024-01-10T11:46:37;102787.56;;;17.91;35.44
61710;BME280;73500;51.494;5.386;2024-01-10T11:49:03;102785.72;;;17.93;35.33
61710;BME280;73500;51.494;5.386;2024-01-10T11:51:29;102786.34;;;17.98;35.62
61710;BME280;73500;51.494;5.386;2024-01-10T11:53:56;102777.91;;;17.91;35.70
61710;BME280;73500;51.494;5.386;2024-01-10T11:56:22;102794.03;;;18.03;35.70
61710;BME280;73500;51.494;5.386;2024-01-10T12:01:21;102764.72;;;17.91;35.79
61710;BME280;73500;51.494;5.386;2024-01-10T12:03:47;102783.63;;;18.00;35.44
61710;BME280;73500;51.494;5.386;2024-01-10T12:06:14;102791.41;;;18.03;35.51
61710;BME280;73500;51.494;5.386;2024-01-10T12:08:40;102766.47;;;17.91;35.70
61710;BME280;73500;51.494;5.386;2024-01-10T12:11:06;102774.00;;;17.99;35.57
61710;BME280;73500;51.494;5.386;2024-01-10T12:13:31;102768.88;;;17.95;35.89
61710;BME280;73500;51.494;5.386;2024-01-10T12:15:57;102782.53;;;18.04;35.92
61710;BME280;73500;51.494;5.386;2024-01-10T12:18:23;102758.47;;;17.92;35.85
61710;BME280;73500;51.494;5.386;2024-01-10T12:20:48;102756.56;;;17.96;36.07
61710;BME280;73500;51.494;5.386;2024-01-10T12:23:13;102755.69;;;17.95;35.90
61710;BME280;73500;51.494;5.386;2024-01-10T12:25:39;102770.13;;;18.06;35.68
61710;BME280;73500;51.494;5.386;2024-01-10T12:28:04;102770.13;;;18.06;35.84
61710;BME280;73500;51.494;5.386;2024-01-10T12:30:30;102755.53;;;17.99;36.01
61710;BME280;73500;51.494;5.386;2024-01-10T12:32:59;102770.13;;;18.06;35.64
61710;BME280;73500;51.494;5.386;2024-01-10T12:35:25;102764.06;;;18.04;35.65
61710;BME280;73500;51.494;5.386;2024-01-10T12:37:56;102776.94;;;18.10;35.86
61710;BME280;73500;51.494;5.386;2024-01-10T12:40:22;102764.88;;;18.06;35.92
61710;BME280;73500;51.494;5.386;2024-01-10T12:42:47;102765.84;;;18.03;35.74
61710;BME280;73500;51.494;5.386;2024-01-10T12:45:23;102776.88;;;18.11;35.90
61710;BME280;73500;51.494;5.386;2024-01-10T12:47:48;102752.81;;;18.00;35.72
61710;BME280;73500;51.494;5.386;2024-01-10T12:50:13;102764.56;;;18.12;35.92
61710;BME280;73500;51.494;5.386;2024-01-10T12:52:40;102764.72;;;18.09;35.67
61710;BME280;73500;51.494;5.386;2024-01-10T12:55:08;102769.84;;;18.12;35.40
61710;BME280;73500;51.494;5.386;2024-01-10T12:57:33;102754.38;;;18.04;35.70
61710;BME280;73500;51.494;5.386;2024-01-10T12:59:58;102768.81;;;18.15;36.00
61710;BME280;73500;51.494;5.386;2024-01-10T13:02:23;102756.88;;;18.07;35.53